createdAt,value
2023-02-17T00:01:02.954Z,76.89
2023-02-17T00:03:34.924Z,76.78
2023-02-17T00:06:10.910Z,76.87
2023-02-17T00:08:43.064Z,76.80
2023-02-17T00:11:15.391Z,76.72
2023-02-17T00:13:49.788Z,76.52
2023-02-17T00:16:23.453Z,76.49
2023-02-17T00:18:58.458Z,76.40
2023-02-17T00:21:32.226Z,76.32
2023-02-17T00:24:04.174Z,76.50
2023-02-17T00:26:38.236Z,76.37
2023-02-17T00:29:10.586Z,76.27
2023-02-17T00:31:42.495Z,76.25
2023-02-17T00:34:14.802Z,76.22
2023-02-17T00:36:46.790Z,76.30
2023-02-17T00:39:19.048Z,76.52
2023-02-17T00:41:54.210Z,76.42
2023-02-17T00:44:27.178Z,76.39
2023-02-17T00:46:58.925Z,76.70
2023-02-17T00:49:30.723Z,76.68
2023-02-17T00:52:03.607Z,76.61
2023-02-17T00:54:39.357Z,76.65
2023-02-17T00:57:09.545Z,76.80
2023-02-17T00:59:41.302Z,76.92
2023-02-17T01:02:13.651Z,77.07
2023-02-17T01:04:45.607Z,77.06
2023-02-17T01:07:20.040Z,77.10
2023-02-17T01:09:52.284Z,77.17
2023-02-17T01:12:24.166Z,77.10
2023-02-17T01:14:55.246Z,77.19
2023-02-17T01:17:28.917Z,77.55
2023-02-17T01:20:01.167Z,77.79
2023-02-17T01:22:32.998Z,77.72
2023-02-17T01:25:05.384Z,77.68
2023-02-17T01:27:38.322Z,77.63
2023-02-17T01:30:12.009Z,77.64
2023-02-17T01:32:44.132Z,77.50
2023-02-17T01:35:16.213Z,77.95
2023-02-17T01:37:49.863Z,78.21
2023-02-17T01:40:21.469Z,78.04
2023-02-17T01:42:53.483Z,77.80
2023-02-17T01:45:43.040Z,77.79
2023-02-17T01:48:18.794Z,77.60
2023-02-17T01:50:54.044Z,77.80
2023-02-17T01:53:31.672Z,77.81
2023-02-17T01:56:04.979Z,77.77
2023-02-17T01:58:39.130Z,77.90
2023-02-17T02:01:11.446Z,78.17
2023-02-17T02:03:43.433Z,78.13
2023-02-17T02:06:21.760Z,78.15
2023-02-17T02:09:00.493Z,78.45
2023-02-17T02:11:34.097Z,78.48
2023-02-17T02:14:08.963Z,78.39
2023-02-17T02:16:50.467Z,78.48
2023-02-17T02:19:53.313Z,78.45
2023-02-17T02:22:41.223Z,78.58
2023-02-17T02:25:29.690Z,78.76
2023-02-17T02:28:16.269Z,79.01
2023-02-17T02:31:15.189Z,79.27
2023-02-17T02:33:51.736Z,79.08
2023-02-17T02:36:29.661Z,78.99
2023-02-17T02:39:05.722Z,79.13
2023-02-17T02:41:42.272Z,79.14
2023-02-17T02:44:19.834Z,79.36
2023-02-17T02:47:00.971Z,79.40
2023-02-17T02:49:35.276Z,79.44
2023-02-17T02:52:17.205Z,79.53
2023-02-17T02:55:00.308Z,79.37
2023-02-17T02:57:48.568Z,79.65
2023-02-17T03:00:26.164Z,79.65
2023-02-17T03:03:04.054Z,79.72
2023-02-17T03:05:45.721Z,79.78
2023-02-17T03:08:21.296Z,79.55
2023-02-17T03:10:55.383Z,79.38
2023-02-17T03:13:27.891Z,79.23
2023-02-17T03:15:59.839Z,79.11
2023-02-17T03:18:34.553Z,78.98
2023-02-17T03:21:15.373Z,78.94
2023-02-17T03:23:47.427Z,79.08
2023-02-17T03:26:19.191Z,79.33
2023-02-17T03:28:51.177Z,79.33
2023-02-17T03:31:23.550Z,79.40
2023-02-17T03:33:54.165Z,79.25
2023-02-17T03:36:26.051Z,79.49
2023-02-17T03:38:58.142Z,79.38
2023-02-17T03:41:30.119Z,79.13
2023-02-17T03:44:01.838Z,79.14
2023-02-17T03:46:33.625Z,79.09
2023-02-17T03:49:05.330Z,79.00
2023-02-17T03:51:37.222Z,78.96
2023-02-17T03:54:08.975Z,78.99
2023-02-17T03:56:47.906Z,79.57
2023-02-17T03:59:19.781Z,80.38
2023-02-17T04:01:51.522Z,80.91
2023-02-17T04:04:23.328Z,81.54
2023-02-17T04:06:55.099Z,81.83
2023-02-17T04:09:26.923Z,83.57
2023-02-17T04:11:58.892Z,83.94
2023-02-17T04:14:31.295Z,83.75
2023-02-17T04:17:05.985Z,84.37
2023-02-17T04:19:37.870Z,84.49
2023-02-17T04:22:09.788Z,84.55
2023-02-17T04:24:43.601Z,84.90
2023-02-17T04:27:15.357Z,85.34
2023-02-17T04:29:47.000Z,85.94
2023-02-17T04:32:18.978Z,86.19
2023-02-17T04:34:50.720Z,86.22
2023-02-17T04:37:22.542Z,86.45
2023-02-17T04:39:54.573Z,86.55
2023-02-17T04:42:26.541Z,86.73
2023-02-17T04:44:58.280Z,87.00
2023-02-17T04:47:30.466Z,88.01
2023-02-17T04:50:02.503Z,88.31
2023-02-17T04:52:34.222Z,88.87
2023-02-17T04:55:07.406Z,88.57
2023-02-17T04:57:39.134Z,88.78
2023-02-17T05:00:13.429Z,88.89
2023-02-17T05:02:45.142Z,89.27
2023-02-17T05:05:18.890Z,89.05
2023-02-17T05:07:50.897Z,89.93
2023-02-17T05:10:24.142Z,91.14
2023-02-17T05:12:56.350Z,91.72
2023-02-17T05:15:28.083Z,91.97
2023-02-17T05:17:59.812Z,91.66
2023-02-17T05:20:31.852Z,91.07
2023-02-17T05:23:03.619Z,90.84
2023-02-17T05:25:35.421Z,91.09
2023-02-17T05:28:07.200Z,90.73
2023-02-17T05:30:38.916Z,90.97
2023-02-17T05:33:10.657Z,91.31
2023-02-17T05:35:42.382Z,91.14
2023-02-17T05:38:14.197Z,91.17
2023-02-17T05:40:46.048Z,91.30
2023-02-17T05:43:17.942Z,91.23
2023-02-17T05:45:49.660Z,91.38
2023-02-17T05:48:21.397Z,91.61
2023-02-17T05:50:53.123Z,91.83
2023-02-17T05:53:24.950Z,91.15
2023-02-17T05:55:56.886Z,91.15
2023-02-17T05:58:28.656Z,91.25
2023-02-17T06:01:00.770Z,91.12
2023-02-17T06:03:32.950Z,90.59
2023-02-17T06:06:05.553Z,90.96
2023-02-17T06:08:39.277Z,91.20
2023-02-17T06:11:11.532Z,91.66
2023-02-17T06:13:43.467Z,92.39
2023-02-17T06:16:15.591Z,92.28
2023-02-17T06:18:47.340Z,92.19
2023-02-17T06:21:19.114Z,92.65
2023-02-17T06:23:50.844Z,93.12
2023-02-17T06:26:22.577Z,93.27
2023-02-17T06:28:54.682Z,94.15
2023-02-17T06:31:27.106Z,94.43
2023-02-17T06:33:59.020Z,94.59
2023-02-17T06:36:30.799Z,95.03
2023-02-17T06:39:02.471Z,95.59
2023-02-17T06:41:34.714Z,96.00
2023-02-17T06:44:06.984Z,96.28
2023-02-17T06:46:38.775Z,97.29
2023-02-17T06:49:10.529Z,97.05
2023-02-17T06:51:42.626Z,96.54
2023-02-17T06:54:14.677Z,97.40
2023-02-17T06:56:46.484Z,97.59
2023-02-17T06:59:18.606Z,98.35
2023-02-17T07:01:50.788Z,98.53
2023-02-17T07:04:22.630Z,98.75
2023-02-17T07:06:54.420Z,98.86
2023-02-17T07:09:26.223Z,98.81
2023-02-17T07:11:58.705Z,98.96
2023-02-17T07:14:30.988Z,99.17
2023-02-17T07:17:03.329Z,99.86
2023-02-17T07:19:35.171Z,100.00
2023-02-17T07:22:06.978Z,100.00
2023-02-17T07:24:38.781Z,100.00
2023-02-17T07:27:11.022Z,99.94
2023-02-17T07:29:43.440Z,100.00
2023-02-17T07:32:15.123Z,100.00
2023-02-17T07:34:46.882Z,100.00
2023-02-17T07:37:20.044Z,100.00
2023-02-17T07:39:52.328Z,100.00
2023-02-17T07:42:24.490Z,100.00
2023-02-17T07:44:57.669Z,100.00
2023-02-17T07:47:30.142Z,100.00
2023-02-17T07:50:02.000Z,100.00
2023-02-17T07:52:35.509Z,100.00
2023-02-17T07:55:07.894Z,100.00
2023-02-17T07:57:39.561Z,100.00
2023-02-17T08:00:13.456Z,100.00
2023-02-17T08:02:46.049Z,100.00
2023-02-17T08:05:18.134Z,100.00
2023-02-17T08:08:09.850Z,100.00
2023-02-17T08:11:14.791Z,100.00
2023-02-17T08:13:47.486Z,100.00
2023-02-17T08:16:19.526Z,100.00
2023-02-17T08:18:51.271Z,100.00
2023-02-17T08:21:23.264Z,100.00
2023-02-17T08:23:56.162Z,100.00
2023-02-17T08:26:28.766Z,100.00
2023-02-17T08:29:00.885Z,100.00
2023-02-17T08:31:36.188Z,100.00
2023-02-17T08:34:09.924Z,100.00
2023-02-17T08:36:42.649Z,100.00
2023-02-17T08:39:17.582Z,100.00
2023-02-17T08:41:49.701Z,100.00
2023-02-17T08:44:22.961Z,100.00
2023-02-17T08:46:55.207Z,100.00
2023-02-17T08:49:30.092Z,100.00
2023-02-17T08:52:02.313Z,100.00
2023-02-17T08:54:34.727Z,100.00
2023-02-17T08:57:06.514Z,100.00
2023-02-17T08:59:38.440Z,100.00
2023-02-17T09:02:11.612Z,100.00
2023-02-17T09:04:44.317Z,100.00
2023-02-17T09:07:16.002Z,100.00
2023-02-17T09:09:47.911Z,100.00
2023-02-17T09:12:20.200Z,100.00
2023-02-17T09:14:52.300Z,100.00
2023-02-17T09:17:25.881Z,100.00
2023-02-17T09:19:57.867Z,100.00
2023-02-17T09:22:32.238Z,100.00
2023-02-17T09:25:05.017Z,100.00
2023-02-17T09:27:36.749Z,100.00
2023-02-17T09:30:11.203Z,100.00
2023-02-17T09:32:44.820Z,100.00
2023-02-17T09:35:18.640Z,100.00
2023-02-17T09:37:50.501Z,100.00
2023-02-17T09:40:25.664Z,100.00
2023-02-17T09:42:57.595Z,100.00
2023-02-17T09:45:35.022Z,100.00
2023-02-17T09:48:11.947Z,100.00
2023-02-17T09:50:46.675Z,100.00
2023-02-17T09:53:25.074Z,100.00
2023-02-17T09:55:59.171Z,100.00
2023-02-17T09:58:37.434Z,100.00
2023-02-17T10:01:12.820Z,100.00
2023-02-17T10:03:50.667Z,100.00
2023-02-17T10:06:27.014Z,100.00
2023-02-17T10:09:04.231Z,100.00
2023-02-17T10:11:39.220Z,100.00
2023-02-17T10:14:16.877Z,100.00
2023-02-17T10:16:54.645Z,100.00
2023-02-17T10:19:31.278Z,100.00
2023-02-17T10:22:08.045Z,100.00
2023-02-17T10:24:40.156Z,100.00
2023-02-17T10:27:25.846Z,100.00
2023-02-17T10:30:10.841Z,100.00
2023-02-17T10:32:55.260Z,100.00
2023-02-17T10:35:34.040Z,100.00
2023-02-17T10:38:15.874Z,100.00
2023-02-17T10:40:51.060Z,100.00
2023-02-17T10:43:29.936Z,100.00
2023-02-17T10:46:04.109Z,100.00
2023-02-17T10:48:41.844Z,100.00
2023-02-17T10:51:18.709Z,100.00
2023-02-17T10:53:53.964Z,100.00
2023-02-17T10:56:31.272Z,100.00
2023-02-17T10:59:08.882Z,100.00
2023-02-17T11:01:42.660Z,100.00
2023-02-17T11:04:15.472Z,100.00
2023-02-17T11:06:51.168Z,100.00
2023-02-17T11:09:32.854Z,100.00
2023-02-17T11:12:11.270Z,100.00
2023-02-17T11:14:49.190Z,100.00
2023-02-17T11:17:31.070Z,100.00
2023-02-17T11:20:06.181Z,100.00
2023-02-17T11:22:41.704Z,100.00
2023-02-17T11:25:25.740Z,100.00
2023-02-17T11:27:59.541Z,100.00
2023-02-17T11:30:34.951Z,100.00
2023-02-17T11:33:22.498Z,100.00
2023-02-17T11:35:56.293Z,100.00
2023-02-17T11:38:31.734Z,100.00
2023-02-17T11:41:06.825Z,100.00
2023-02-17T11:43:39.237Z,100.00
2023-02-17T11:46:29.332Z,100.00
2023-02-17T11:49:21.596Z,100.00
2023-02-17T11:52:04.865Z,100.00
2023-02-17T11:54:48.836Z,100.00
2023-02-17T11:57:34.348Z,100.00
2023-02-17T12:00:17.272Z,100.00
2023-02-17T12:03:04.818Z,100.00
2023-02-17T12:05:47.811Z,100.00
2023-02-17T12:08:27.376Z,100.00
2023-02-17T12:11:09.179Z,100.00
2023-02-17T12:13:53.605Z,100.00
2023-02-17T12:16:36.973Z,100.00
2023-02-17T12:19:25.909Z,100.00
2023-02-17T12:22:10.190Z,100.00
2023-02-17T12:24:54.054Z,100.00
2023-02-17T12:27:39.494Z,100.00
2023-02-17T12:30:27.657Z,100.00
2023-02-17T12:33:35.396Z,100.00
2023-02-17T12:36:11.616Z,100.00
2023-02-17T12:38:49.351Z,100.00
2023-02-17T12:41:27.389Z,100.00
2023-02-17T12:44:02.940Z,100.00
2023-02-17T12:46:39.819Z,100.00
2023-02-17T12:49:18.396Z,100.00
2023-02-17T12:51:54.013Z,100.00
2023-02-17T12:54:33.894Z,100.00
2023-02-17T12:57:17.234Z,100.00
2023-02-17T12:59:51.276Z,100.00
2023-02-17T13:02:24.861Z,100.00
2023-02-17T13:05:00.500Z,100.00
2023-02-17T13:07:47.381Z,100.00
2023-02-17T13:10:30.026Z,100.00
2023-02-17T13:13:06.421Z,100.00
2023-02-17T13:15:42.821Z,100.00
2023-02-17T13:18:29.401Z,100.00
2023-02-17T13:21:16.100Z,100.00
2023-02-17T13:23:59.998Z,100.00
2023-02-17T13:26:34.761Z,100.00
2023-02-17T13:29:35.230Z,100.00
2023-02-17T13:32:10.614Z,100.00
2023-02-17T13:34:44.649Z,100.00
2023-02-17T13:37:25.141Z,100.00
2023-02-17T13:39:57.606Z,100.00
2023-02-17T13:42:42.100Z,100.00
2023-02-17T13:45:27.858Z,100.00
2023-02-17T13:48:01.603Z,100.00
2023-02-17T13:50:36.283Z,100.00
2023-02-17T13:53:24.692Z,100.00
2023-02-17T13:55:58.496Z,100.00
2023-02-17T13:58:33.098Z,100.00
2023-02-17T14:01:07.786Z,100.00
2023-02-17T14:03:48.008Z,100.00
2023-02-17T14:06:26.869Z,100.00
2023-02-17T14:08:59.664Z,100.00
2023-02-17T14:11:33.085Z,100.00
2023-02-17T14:14:07.675Z,100.00
2023-02-17T14:16:43.409Z,100.00
2023-02-17T14:19:18.316Z,100.00
2023-02-17T14:22:00.925Z,100.00
2023-02-17T14:24:36.146Z,100.00
2023-02-17T14:27:13.928Z,100.00
2023-02-17T14:29:48.552Z,100.00
2023-02-17T14:32:31.942Z,100.00
2023-02-17T14:35:20.955Z,100.00
2023-02-17T14:37:53.131Z,100.00
2023-02-17T14:40:26.205Z,100.00
2023-02-17T14:42:57.979Z,100.00
2023-02-17T14:45:29.721Z,100.00
2023-02-17T14:48:01.513Z,100.00
2023-02-17T14:50:34.458Z,100.00
2023-02-17T14:53:11.103Z,100.00
2023-02-17T14:55:47.056Z,100.00
2023-02-17T14:58:25.588Z,100.00
2023-02-17T15:00:57.676Z,100.00
2023-02-17T15:03:29.918Z,100.00
2023-02-17T15:06:02.604Z,100.00
2023-02-17T15:08:36.149Z,100.00
2023-02-17T15:11:12.549Z,100.00
2023-02-17T15:13:44.372Z,100.00
2023-02-17T15:16:16.810Z,100.00
2023-02-17T15:18:50.874Z,100.00
2023-02-17T15:21:29.919Z,100.00
2023-02-17T15:24:03.486Z,100.00
2023-02-17T15:26:35.516Z,100.00
2023-02-17T15:29:07.316Z,100.00
2023-02-17T15:31:39.406Z,100.00
2023-02-17T15:34:16.738Z,100.00
2023-02-17T15:36:48.970Z,100.00
2023-02-17T15:39:22.190Z,100.00
2023-02-17T15:41:57.259Z,100.00
2023-02-17T15:44:36.392Z,100.00
2023-02-17T15:47:13.358Z,100.00
2023-02-17T15:49:45.880Z,100.00
2023-02-17T15:52:17.646Z,100.00
2023-02-17T15:54:49.857Z,100.00
2023-02-17T15:57:25.626Z,100.00
2023-02-17T15:59:58.174Z,100.00
2023-02-17T16:02:31.411Z,100.00
2023-02-17T16:05:03.646Z,100.00
2023-02-17T16:07:36.371Z,100.00
2023-02-17T16:10:12.598Z,100.00
2023-02-17T16:12:45.010Z,100.00
2023-02-17T16:15:19.742Z,100.00
2023-02-17T16:17:52.108Z,100.00
2023-02-17T16:20:26.519Z,100.00
2023-02-17T16:22:58.415Z,100.00
2023-02-17T16:25:31.135Z,100.00
2023-02-17T16:28:01.949Z,100.00
2023-02-17T16:30:36.549Z,100.00
2023-02-17T16:33:10.906Z,100.00
2023-02-17T16:35:45.041Z,100.00
2023-02-17T16:38:23.034Z,100.00
2023-02-17T16:40:55.375Z,100.00
2023-02-17T16:43:30.547Z,100.00
2023-02-17T16:46:04.903Z,100.00
2023-02-17T16:48:38.097Z,100.00
2023-02-17T16:51:10.068Z,100.00
2023-02-17T16:53:41.836Z,100.00
2023-02-17T16:56:19.674Z,100.00
2023-02-17T16:58:51.557Z,100.00
2023-02-17T17:01:24.308Z,100.00
2023-02-17T17:03:56.522Z,100.00
2023-02-17T17:06:30.627Z,100.00
2023-02-17T17:09:02.538Z,100.00
2023-02-17T17:11:34.639Z,100.00
2023-02-17T17:14:06.472Z,100.00
2023-02-17T17:16:40.068Z,100.00
2023-02-17T17:19:14.003Z,100.00
2023-02-17T17:21:45.727Z,100.00
2023-02-17T17:24:18.606Z,100.00
2023-02-17T17:26:51.806Z,100.00
2023-02-17T17:29:24.354Z,100.00
2023-02-17T17:31:56.252Z,100.00
2023-02-17T17:34:28.539Z,100.00
2023-02-17T17:37:00.562Z,100.00
2023-02-17T17:39:32.367Z,100.00
2023-02-17T17:42:04.261Z,100.00
2023-02-17T17:44:36.001Z,100.00
2023-02-17T17:47:21.334Z,100.00
2023-02-17T17:50:00.243Z,100.00
2023-02-17T17:52:32.386Z,100.00
2023-02-17T17:55:04.305Z,100.00
2023-02-17T17:57:36.155Z,100.00
2023-02-17T18:00:11.048Z,100.00
2023-02-17T18:02:47.210Z,100.00
2023-02-17T18:05:19.678Z,100.00
2023-02-17T18:07:53.354Z,100.00
2023-02-17T18:10:25.186Z,100.00
2023-02-17T18:12:57.130Z,100.00
2023-02-17T18:15:29.208Z,100.00
2023-02-17T18:18:01.009Z,100.00
2023-02-17T18:20:33.208Z,100.00
2023-02-17T18:23:05.456Z,100.00
2023-02-17T18:25:37.223Z,100.00
2023-02-17T18:28:09.019Z,100.00
2023-02-17T18:30:40.884Z,100.00
2023-02-17T18:33:14.498Z,100.00
2023-02-17T18:35:46.589Z,100.00
2023-02-17T18:38:19.549Z,100.00
2023-02-17T18:40:52.003Z,100.00
2023-02-17T18:43:24.072Z,100.00
2023-02-17T18:45:55.900Z,100.00
2023-02-17T18:48:27.784Z,100.00
2023-02-17T18:50:59.535Z,100.00
2023-02-17T18:53:31.767Z,100.00
2023-02-17T18:56:03.546Z,100.00
2023-02-17T18:58:35.326Z,100.00
2023-02-17T19:01:07.777Z,100.00
2023-02-17T19:03:39.600Z,100.00
2023-02-17T19:06:16.934Z,100.00
2023-02-17T19:08:50.259Z,99.01
2023-02-17T19:11:24.234Z,98.68
2023-02-17T19:13:56.328Z,99.73
2023-02-17T19:16:31.076Z,100.00
2023-02-17T19:19:03.955Z,100.00
2023-02-17T19:21:36.553Z,100.00
2023-02-17T19:24:09.400Z,100.00
2023-02-17T19:26:41.457Z,100.00
2023-02-17T19:29:13.555Z,100.00
2023-02-17T19:31:45.884Z,100.00
2023-02-17T19:34:19.918Z,100.00
2023-02-17T19:36:52.029Z,100.00
2023-02-17T19:39:24.619Z,100.00
2023-02-17T19:41:55.377Z,100.00
2023-02-17T19:44:27.251Z,100.00
2023-02-17T19:46:59.071Z,100.00
2023-02-17T19:49:31.030Z,99.97
2023-02-17T19:52:02.718Z,97.22
2023-02-17T19:54:34.504Z,96.20
2023-02-17T19:57:06.851Z,95.35
2023-02-17T19:59:39.082Z,93.95
2023-02-17T20:02:16.198Z,90.93
2023-02-17T20:04:47.992Z,91.91
2023-02-17T20:07:20.017Z,88.07
2023-02-17T20:09:52.047Z,84.61
2023-02-17T20:12:24.211Z,80.71
2023-02-17T20:14:56.353Z,80.54
2023-02-17T20:17:28.123Z,81.07
2023-02-17T20:20:00.408Z,80.41
2023-02-17T20:22:32.259Z,77.68
2023-02-17T20:25:04.568Z,77.52
2023-02-17T20:27:36.675Z,77.21
2023-02-17T20:30:10.642Z,74.55
2023-02-17T20:32:42.785Z,72.91
2023-02-17T20:35:16.499Z,71.65
2023-02-17T20:37:48.634Z,70.74
2023-02-17T20:40:21.870Z,70.61
2023-02-17T20:42:54.202Z,70.82
2023-02-17T20:45:26.261Z,71.36
2023-02-17T20:47:58.440Z,70.93
2023-02-17T20:50:30.800Z,71.47
2023-02-17T20:53:03.229Z,71.17
2023-02-17T20:55:35.324Z,71.39
2023-02-17T20:58:07.636Z,71.54
2023-02-17T21:00:40.721Z,71.22
2023-02-17T21:03:12.696Z,70.54
2023-02-17T21:05:44.838Z,70.90
2023-02-17T21:08:19.160Z,71.37
2023-02-17T21:10:51.476Z,71.85
2023-02-17T21:13:23.857Z,71.68
2023-02-17T21:15:56.063Z,71.16
2023-02-17T21:18:27.955Z,71.22
2023-02-17T21:20:59.703Z,71.44
2023-02-17T21:23:31.732Z,69.22
2023-02-17T21:26:03.783Z,67.58
2023-02-17T21:28:36.092Z,66.56
2023-02-17T21:31:08.586Z,65.34
2023-02-17T21:33:42.241Z,64.48
2023-02-17T21:36:17.539Z,63.34
2023-02-17T21:38:49.877Z,62.56
2023-02-17T21:41:24.033Z,62.21
2023-02-17T21:44:13.757Z,61.87
2023-02-17T21:46:46.539Z,61.38
2023-02-17T21:49:18.512Z,61.88
2023-02-17T21:51:50.552Z,62.34
2023-02-17T21:54:23.392Z,63.04
2023-02-17T21:56:57.468Z,63.61
2023-02-17T21:59:29.500Z,63.86
2023-02-17T22:02:01.273Z,64.62
2023-02-17T22:04:33.069Z,65.34
2023-02-17T22:07:04.866Z,65.77
2023-02-17T22:09:36.897Z,65.84
2023-02-17T22:12:08.163Z,66.27
2023-02-17T22:14:40.199Z,66.66
2023-02-17T22:17:11.907Z,67.06
2023-02-17T22:19:43.764Z,67.71
2023-02-17T22:22:15.520Z,67.14
2023-02-17T22:24:47.479Z,67.40
2023-02-17T22:27:19.541Z,67.41
2023-02-17T22:29:51.423Z,67.33
2023-02-17T22:32:23.125Z,67.48
2023-02-17T22:34:54.826Z,67.35
2023-02-17T22:37:26.708Z,67.64
2023-02-17T22:39:59.344Z,67.31
2023-02-17T22:42:29.894Z,66.84
2023-02-17T22:45:01.680Z,67.13
2023-02-17T22:47:33.815Z,67.60
2023-02-17T22:50:06.512Z,67.64
2023-02-17T22:52:38.595Z,66.83
2023-02-17T22:55:10.583Z,67.07
2023-02-17T22:57:42.530Z,67.93
2023-02-17T23:00:16.563Z,68.40
2023-02-17T23:02:48.543Z,68.62
2023-02-17T23:05:20.917Z,68.22
2023-02-17T23:07:53.584Z,68.12
2023-02-17T23:10:24.013Z,67.69
2023-02-17T23:12:55.979Z,67.39
2023-02-17T23:15:40.217Z,67.92
2023-02-17T23:18:14.732Z,67.46
2023-02-17T23:20:49.627Z,67.82
2023-02-17T23:23:24.388Z,67.88
2023-02-17T23:25:57.940Z,67.61
2023-02-17T23:28:29.734Z,67.84
2023-02-17T23:31:01.500Z,68.05
2023-02-17T23:33:33.215Z,67.96
2023-02-17T23:36:08.477Z,67.91
2023-02-17T23:38:40.441Z,67.58
2023-02-17T23:41:13.006Z,67.22
2023-02-17T23:43:43.316Z,67.45
2023-02-17T23:46:15.294Z,67.47
2023-02-17T23:48:47.264Z,67.97
2023-02-17T23:51:20.167Z,68.00
2023-02-17T23:53:52.204Z,68.08
2023-02-17T23:56:26.561Z,68.17
2023-02-17T23:58:58.299Z,68.09
